sensor_id;sensor_type;location;lat;lon;timestamp;pressure;altitude;pressure_sealevel;temperature;humidity
68586;BME280;72506;-25.924;28.194;2023-08-30T00:00:58;86050.80;;;14.02;39.12
68586;BME280;72506;-25.924;28.194;2023-08-30T00:03:23;86059.90;;;13.11;41.85
68586;BME280;72506;-25.924;28.194;2023-08-30T00:05:48;86053.27;;;13.82;41.03
68586;BME280;72506;-25.924;28.194;2023-08-30T00:08:13;86053.32;;;13.37;41.11
68586;BME280;72506;-25.924;28.194;2023-08-30T00:10:39;86063.05;;;12.73;42.62
68586;BME280;72506;-25.924;28.194;2023-08-30T00:13:04;86065.33;;;12.70;43.41
68586;BME280;72506;-25.924;28.194;2023-08-30T00:15:30;86063.38;;;12.81;43.38
68586;BME280;72506;-25.924;28.194;2023-08-30T00:17:55;86063.49;;;12.48;43.84
68586;BME280;72506;-25.924;28.194;2023-08-30T00:20:21;86065.63;;;12.67;43.68
68586;BME280;72506;-25.924;28.194;2023-08-30T00:22:46;86066.01;;;12.91;43.91
68586;BME280;72506;-25.924;28.194;2023-08-30T00:25:11;86066.90;;;12.70;44.23
68586;BME280;72506;-25.924;28.194;2023-08-30T00:27:36;86065.05;;;12.74;44.47
68586;BME280;72506;-25.924;28.194;2023-08-30T00:30:02;86055.53;;;13.76;42.78
68586;BME280;72506;-25.924;28.194;2023-08-30T00:32:27;86058.95;;;12.63;44.35
68586;BME280;72506;-25.924;28.194;2023-08-30T00:34:52;86049.88;;;13.26;43.08
68586;BME280;72506;-25.924;28.194;2023-08-30T00:37:17;86053.22;;;12.77;43.98
68586;BME280;72506;-25.924;28.194;2023-08-30T00:39:42;86050.78;;;12.90;44.18
68586;BME280;72506;-25.924;28.194;2023-08-30T00:42:07;86044.35;;;13.42;42.85
68586;BME280;72506;-25.924;28.194;2023-08-30T00:44:33;86043.66;;;13.52;42.56
68586;BME280;72506;-25.924;28.194;2023-08-30T00:46:58;86041.57;;;13.44;42.48
68586;BME280;72506;-25.924;28.194;2023-08-30T00:49:23;86045.37;;;13.65;42.90
68586;BME280;72506;-25.924;28.194;2023-08-30T00:51:48;86051.82;;;13.07;44.10
68586;BME280;72506;-25.924;28.194;2023-08-30T00:54:13;86050.70;;;12.95;44.49
68586;BME280;72506;-25.924;28.194;2023-08-30T00:56:39;86041.87;;;13.20;43.59
68586;BME280;72506;-25.924;28.194;2023-08-30T00:59:04;86038.91;;;13.50;43.48
68586;BME280;72506;-25.924;28.194;2023-08-30T01:01:29;86033.77;;;13.41;42.68
68586;BME280;72506;-25.924;28.194;2023-08-30T01:03:54;86036.26;;;13.31;43.10
68586;BME280;72506;-25.924;28.194;2023-08-30T01:06:19;86031.82;;;13.28;43.98
68586;BME280;72506;-25.924;28.194;2023-08-30T01:08:44;86035.22;;;13.42;44.08
68586;BME280;72506;-25.924;28.194;2023-08-30T01:11:16;86032.00;;;13.54;43.32
68586;BME280;72506;-25.924;28.194;2023-08-30T01:13:40;86040.81;;;12.98;44.99
68586;BME280;72506;-25.924;28.194;2023-08-30T01:16:00;86041.25;;;12.94;45.05
68586;BME280;72506;-25.924;28.194;2023-08-30T01:18:29;86035.22;;;13.81;44.05
68586;BME280;72506;-25.924;28.194;2023-08-30T01:20:52;86040.10;;;12.91;45.74
68586;BME280;72506;-25.924;28.194;2023-08-30T01:23:23;86030.38;;;13.41;44.85
68586;BME280;72506;-25.924;28.194;2023-08-30T01:25:50;86035.78;;;12.82;46.15
68586;BME280;72506;-25.924;28.194;2023-08-30T01:28:06;86033.12;;;12.67;46.50
68586;BME280;72506;-25.924;28.194;2023-08-30T01:30:32;86027.50;;;13.21;45.60
68586;BME280;72506;-25.924;28.194;2023-08-30T01:32:56;86031.31;;;12.90;45.75
68586;BME280;72506;-25.924;28.194;2023-08-30T01:35:21;86036.43;;;12.72;46.38
68586;BME280;72506;-25.924;28.194;2023-08-30T01:37:46;86028.57;;;13.59;45.61
68586;BME280;72506;-25.924;28.194;2023-08-30T01:40:12;86025.03;;;13.52;43.82
68586;BME280;72506;-25.924;28.194;2023-08-30T01:42:37;86022.30;;;13.34;44.03
68586;BME280;72506;-25.924;28.194;2023-08-30T01:45:02;86033.16;;;12.64;45.73
68586;BME280;72506;-25.924;28.194;2023-08-30T01:47:28;86032.47;;;13.15;45.66
68586;BME280;72506;-25.924;28.194;2023-08-30T01:49:52;86037.03;;;12.81;46.92
68586;BME280;72506;-25.924;28.194;2023-08-30T01:52:17;86031.71;;;13.18;45.21
68586;BME280;72506;-25.924;28.194;2023-08-30T01:54:42;86026.04;;;13.29;44.46
68586;BME280;72506;-25.924;28.194;2023-08-30T01:57:08;86017.78;;;13.21;42.64
68586;BME280;72506;-25.924;28.194;2023-08-30T01:59:33;86014.47;;;13.37;41.91
68586;BME280;72506;-25.924;28.194;2023-08-30T02:01:58;86016.28;;;13.28;42.42
68586;BME280;72506;-25.924;28.194;2023-08-30T02:04:23;86021.34;;;13.24;42.36
68586;BME280;72506;-25.924;28.194;2023-08-30T02:06:54;86023.04;;;13.40;42.63
68586;BME280;72506;-25.924;28.194;2023-08-30T02:09:19;86029.14;;;12.26;42.83
68586;BME280;72506;-25.924;28.194;2023-08-30T02:11:40;86032.32;;;12.39;43.06
68586;BME280;72506;-25.924;28.194;2023-08-30T02:14:06;86032.47;;;12.77;42.57
68586;BME280;72506;-25.924;28.194;2023-08-30T02:16:30;86037.28;;;12.74;43.96
68586;BME280;72506;-25.924;28.194;2023-08-30T02:18:55;86035.78;;;12.46;44.03
68586;BME280;72506;-25.924;28.194;2023-08-30T02:21:20;86037.86;;;12.80;44.35
68586;BME280;72506;-25.924;28.194;2023-08-30T02:23:50;86041.16;;;12.77;44.76
68586;BME280;72506;-25.924;28.194;2023-08-30T02:26:10;86041.83;;;12.65;44.73
68586;BME280;72506;-25.924;28.194;2023-08-30T02:28:36;86045.59;;;12.55;44.99
68586;BME280;72506;-25.924;28.194;2023-08-30T02:31:01;86041.51;;;12.31;45.10
68586;BME280;72506;-25.924;28.194;2023-08-30T02:33:26;86040.25;;;12.43;44.97
68586;BME280;72506;-25.924;28.194;2023-08-30T02:35:52;86038.00;;;12.34;44.68
68586;BME280;72506;-25.924;28.194;2023-08-30T02:38:17;86035.36;;;12.36;45.02
68586;BME280;72506;-25.924;28.194;2023-08-30T02:40:43;86033.16;;;12.31;44.87
68586;BME280;72506;-25.924;28.194;2023-08-30T02:43:08;86037.29;;;11.85;45.27
68586;BME280;72506;-25.924;28.194;2023-08-30T02:45:34;86036.47;;;11.82;45.35
68586;BME280;72506;-25.924;28.194;2023-08-30T02:48:00;86042.32;;;12.05;46.92
68586;BME280;72506;-25.924;28.194;2023-08-30T02:50:25;86044.97;;;12.04;46.70
68586;BME280;72506;-25.924;28.194;2023-08-30T02:52:50;86045.78;;;12.42;46.24
68586;BME280;72506;-25.924;28.194;2023-08-30T02:55:16;86045.95;;;12.22;46.87
68586;BME280;72506;-25.924;28.194;2023-08-30T02:57:40;86044.29;;;12.60;45.95
68586;BME280;72506;-25.924;28.194;2023-08-30T03:00:06;86042.14;;;12.74;44.86
68586;BME280;72506;-25.924;28.194;2023-08-30T03:02:30;86044.51;;;12.69;45.22
68586;BME280;72506;-25.924;28.194;2023-08-30T03:04:56;86047.44;;;12.97;45.25
68586;BME280;72506;-25.924;28.194;2023-08-30T03:07:21;86044.19;;;13.07;44.58
68586;BME280;72506;-25.924;28.194;2023-08-30T03:09:51;86036.23;;;12.70;43.74
68586;BME280;72506;-25.924;28.194;2023-08-30T03:12:11;86040.60;;;12.59;45.18
68586;BME280;72506;-25.924;28.194;2023-08-30T03:14:37;86040.99;;;12.12;45.02
68586;BME280;72506;-25.924;28.194;2023-08-30T03:17:03;86041.16;;;12.32;45.58
68586;BME280;72506;-25.924;28.194;2023-08-30T03:19:28;86042.11;;;12.23;45.56
68586;BME280;72506;-25.924;28.194;2023-08-30T03:21:53;86039.40;;;11.67;46.53
68586;BME280;72506;-25.924;28.194;2023-08-30T03:24:18;86035.44;;;12.14;46.12
68586;BME280;72506;-25.924;28.194;2023-08-30T03:26:44;86031.53;;;11.74;44.46
68586;BME280;72506;-25.924;28.194;2023-08-30T03:29:09;86038.49;;;11.70;46.05
68586;BME280;72506;-25.924;28.194;2023-08-30T03:31:35;86039.33;;;11.91;46.00
68586;BME280;72506;-25.924;28.194;2023-08-30T03:34:00;86041.11;;;11.13;46.29
68586;BME280;72506;-25.924;28.194;2023-08-30T03:36:25;86037.92;;;11.58;45.65
68586;BME280;72506;-25.924;28.194;2023-08-30T03:38:50;86036.31;;;11.31;45.83
68586;BME280;72506;-25.924;28.194;2023-08-30T03:41:15;86037.13;;;11.57;46.14
68586;BME280;72506;-25.924;28.194;2023-08-30T03:43:41;86038.68;;;11.68;47.23
68586;BME280;72506;-25.924;28.194;2023-08-30T03:46:06;86040.52;;;10.95;48.45
68586;BME280;72506;-25.924;28.194;2023-08-30T03:48:32;86040.72;;;11.00;49.71
68586;BME280;72506;-25.924;28.194;2023-08-30T03:50:57;86043.40;;;11.42;48.61
68586;BME280;72506;-25.924;28.194;2023-08-30T03:53:22;86042.98;;;11.98;47.76
68586;BME280;72506;-25.924;28.194;2023-08-30T03:55:48;86039.63;;;11.47;47.83
68586;BME280;72506;-25.924;28.194;2023-08-30T03:58:13;86034.92;;;11.83;46.22
68586;BME280;72506;-25.924;28.194;2023-08-30T04:00:39;86039.01;;;11.51;48.74
68586;BME280;72506;-25.924;28.194;2023-08-30T04:03:04;86037.44;;;12.02;48.18
68586;BME280;72506;-25.924;28.194;2023-08-30T04:05:33;86034.52;;;11.81;47.79
68586;BME280;72506;-25.924;28.194;2023-08-30T04:07:55;86034.36;;;11.67;46.58
68586;BME280;72506;-25.924;28.194;2023-08-30T04:10:20;86033.03;;;11.88;45.42
68586;BME280;72506;-25.924;28.194;2023-08-30T04:12:45;86031.26;;;11.69;44.99
68586;BME280;72506;-25.924;28.194;2023-08-30T04:15:11;86034.57;;;11.01;45.94
68586;BME280;72506;-25.924;28.194;2023-08-30T04:17:36;86039.89;;;11.74;46.48
68586;BME280;72506;-25.924;28.194;2023-08-30T04:20:01;86047.09;;;12.11;48.15
68586;BME280;72506;-25.924;28.194;2023-08-30T04:22:27;86050.08;;;11.84;48.90
68586;BME280;72506;-25.924;28.194;2023-08-30T04:24:52;86052.82;;;12.16;48.55
68586;BME280;72506;-25.924;28.194;2023-08-30T04:27:17;86055.70;;;12.15;49.55
68586;BME280;72506;-25.924;28.194;2023-08-30T04:29:43;86050.43;;;12.34;47.84
68586;BME280;72506;-25.924;28.194;2023-08-30T04:32:08;86049.30;;;12.70;46.81
68586;BME280;72506;-25.924;28.194;2023-08-30T04:34:33;86054.51;;;12.01;48.74
68586;BME280;72506;-25.924;28.194;2023-08-30T04:36:59;86057.04;;;12.32;48.88
68586;BME280;72506;-25.924;28.194;2023-08-30T04:39:24;86061.74;;;12.54;48.80
68586;BME280;72506;-25.924;28.194;2023-08-30T04:41:50;86059.70;;;12.62;48.14
68586;BME280;72506;-25.924;28.194;2023-08-30T04:44:16;86059.72;;;13.03;46.64
68586;BME280;72506;-25.924;28.194;2023-08-30T04:46:40;86059.50;;;12.54;46.70
68586;BME280;72506;-25.924;28.194;2023-08-30T04:49:06;86064.12;;;13.15;47.32
68586;BME280;72506;-25.924;28.194;2023-08-30T04:51:32;86061.65;;;12.97;45.97
68586;BME280;72506;-25.924;28.194;2023-08-30T04:53:57;86063.61;;;12.24;45.70
68586;BME280;72506;-25.924;28.194;2023-08-30T04:56:23;86065.59;;;12.74;46.04
68586;BME280;72506;-25.924;28.194;2023-08-30T04:58:48;86067.31;;;12.67;46.37
68586;BME280;72506;-25.924;28.194;2023-08-30T05:01:13;86068.35;;;13.01;46.12
68586;BME280;72506;-25.924;28.194;2023-08-30T05:03:39;86069.23;;;12.78;46.18
68586;BME280;72506;-25.924;28.194;2023-08-30T05:06:05;86066.98;;;13.19;45.37
68586;BME280;72506;-25.924;28.194;2023-08-30T05:08:30;86070.41;;;13.25;45.65
68586;BME280;72506;-25.924;28.194;2023-08-30T05:10:55;86074.12;;;13.19;46.43
68586;BME280;72506;-25.924;28.194;2023-08-30T05:13:20;86073.95;;;13.00;46.00
68586;BME280;72506;-25.924;28.194;2023-08-30T05:15:46;86069.85;;;13.62;44.99
68586;BME280;72506;-25.924;28.194;2023-08-30T05:18:12;86071.92;;;13.72;45.36
68586;BME280;72506;-25.924;28.194;2023-08-30T05:20:37;86070.05;;;14.27;44.67
68586;BME280;72506;-25.924;28.194;2023-08-30T05:23:03;86071.39;;;14.44;44.90
68586;BME280;72506;-25.924;28.194;2023-08-30T05:25:28;86073.06;;;14.67;44.97
68586;BME280;72506;-25.924;28.194;2023-08-30T05:27:53;86077.84;;;14.62;45.60
68586;BME280;72506;-25.924;28.194;2023-08-30T05:30:19;86075.19;;;14.65;44.53
68586;BME280;72506;-25.924;28.194;2023-08-30T05:32:45;86076.36;;;14.86;45.01
68586;BME280;72506;-25.924;28.194;2023-08-30T05:35:10;86079.98;;;15.11;44.77
68586;BME280;72506;-25.924;28.194;2023-08-30T05:37:36;86074.92;;;15.39;42.74
68586;BME280;72506;-25.924;28.194;2023-08-30T05:40:01;86075.95;;;15.18;43.34
68586;BME280;72506;-25.924;28.194;2023-08-30T05:42:26;86074.52;;;15.47;42.42
68586;BME280;72506;-25.924;28.194;2023-08-30T05:44:52;86085.25;;;15.31;43.92
68586;BME280;72506;-25.924;28.194;2023-08-30T05:47:17;86082.64;;;14.92;43.69
68586;BME280;72506;-25.924;28.194;2023-08-30T05:49:42;86080.48;;;15.21;42.60
68586;BME280;72506;-25.924;28.194;2023-08-30T05:52:08;86087.09;;;14.87;44.29
68586;BME280;72506;-25.924;28.194;2023-08-30T05:54:34;86084.18;;;14.95;43.38
68586;BME280;72506;-25.924;28.194;2023-08-30T05:56:59;86092.14;;;15.35;44.08
68586;BME280;72506;-25.924;28.194;2023-08-30T05:59:24;86094.82;;;15.76;43.32
68586;BME280;72506;-25.924;28.194;2023-08-30T06:01:49;86095.61;;;14.88;44.77
68586;BME280;72506;-25.924;28.194;2023-08-30T06:04:14;86098.61;;;15.54;44.16
68586;BME280;72506;-25.924;28.194;2023-08-30T06:06:40;86114.95;;;13.24;51.09
68586;BME280;72506;-25.924;28.194;2023-08-30T06:09:05;86108.67;;;14.40;50.93
68586;BME280;72506;-25.924;28.194;2023-08-30T06:11:30;86103.32;;;15.31;47.39
68586;BME280;72506;-25.924;28.194;2023-08-30T06:13:55;86102.07;;;15.20;46.77
68586;BME280;72506;-25.924;28.194;2023-08-30T06:16:20;86093.98;;;15.37;45.05
68586;BME280;72506;-25.924;28.194;2023-08-30T06:18:45;86100.86;;;14.11;49.38
68586;BME280;72506;-25.924;28.194;2023-08-30T06:21:10;86105.02;;;15.31;48.36
68586;BME280;72506;-25.924;28.194;2023-08-30T06:23:38;86101.11;;;15.75;45.75
68586;BME280;72506;-25.924;28.194;2023-08-30T06:26:01;86103.48;;;16.22;45.87
68586;BME280;72506;-25.924;28.194;2023-08-30T06:28:26;86098.65;;;15.44;45.47
68586;BME280;72506;-25.924;28.194;2023-08-30T06:30:51;86095.20;;;16.02;44.16
68586;BME280;72506;-25.924;28.194;2023-08-30T06:33:16;86098.95;;;15.57;44.35
68586;BME280;72506;-25.924;28.194;2023-08-30T06:35:41;86097.53;;;15.70;43.91
68586;BME280;72506;-25.924;28.194;2023-08-30T06:38:06;86098.50;;;15.83;44.76
68586;BME280;72506;-25.924;28.194;2023-08-30T06:40:32;86092.08;;;16.76;42.61
68586;BME280;72506;-25.924;28.194;2023-08-30T06:42:56;86093.61;;;16.92;42.77
68586;BME280;72506;-25.924;28.194;2023-08-30T06:45:21;86089.55;;;16.66;41.60
68586;BME280;72506;-25.924;28.194;2023-08-30T06:47:48;86097.44;;;16.21;44.25
68586;BME280;72506;-25.924;28.194;2023-08-30T06:50:11;86089.45;;;15.59;42.90
68586;BME280;72506;-25.924;28.194;2023-08-30T06:52:37;86082.55;;;18.00;39.34
68586;BME280;72506;-25.924;28.194;2023-08-30T06:55:02;86089.63;;;18.04;40.81
68586;BME280;72506;-25.924;28.194;2023-08-30T06:57:27;86083.58;;;17.70;39.04
68586;BME280;72506;-25.924;28.194;2023-08-30T06:59:52;86083.51;;;17.46;39.35
68586;BME280;72506;-25.924;28.194;2023-08-30T07:02:18;86081.08;;;18.30;38.42
68586;BME280;72506;-25.924;28.194;2023-08-30T07:04:43;86073.96;;;18.60;35.94
68586;BME280;72506;-25.924;28.194;2023-08-30T07:07:09;86065.29;;;20.38;33.85
68586;BME280;72506;-25.924;28.194;2023-08-30T07:09:33;86070.38;;;20.18;33.85
68586;BME280;72506;-25.924;28.194;2023-08-30T07:11:58;86072.44;;;20.48;33.98
68586;BME280;72506;-25.924;28.194;2023-08-30T07:14:23;86073.34;;;21.08;32.03
68586;BME280;72506;-25.924;28.194;2023-08-30T07:16:49;86074.82;;;19.86;32.40
68586;BME280;72506;-25.924;28.194;2023-08-30T07:19:14;86079.20;;;20.84;33.00
68586;BME280;72506;-25.924;28.194;2023-08-30T07:21:40;86080.98;;;20.23;33.72
68586;BME280;72506;-25.924;28.194;2023-08-30T07:24:06;86074.41;;;21.23;31.61
68586;BME280;72506;-25.924;28.194;2023-08-30T07:26:30;86086.01;;;21.66;34.08
68586;BME280;72506;-25.924;28.194;2023-08-30T07:28:57;86078.45;;;21.07;32.05
68586;BME280;72506;-25.924;28.194;2023-08-30T07:31:21;86074.03;;;21.44;31.57
68586;BME280;72506;-25.924;28.194;2023-08-30T07:33:47;86075.75;;;21.68;32.36
68586;BME280;72506;-25.924;28.194;2023-08-30T07:36:13;86074.37;;;21.71;31.96
68586;BME280;72506;-25.924;28.194;2023-08-30T07:38:39;86071.82;;;21.01;31.61
68586;BME280;72506;-25.924;28.194;2023-08-30T07:41:05;86062.35;;;22.51;30.28
68586;BME280;72506;-25.924;28.194;2023-08-30T07:43:30;86057.92;;;22.82;30.08
68586;BME280;72506;-25.924;28.194;2023-08-30T07:45:58;86058.62;;;22.87;31.43
68586;BME280;72506;-25.924;28.194;2023-08-30T07:48:22;86048.63;;;23.39;28.20
68586;BME280;72506;-25.924;28.194;2023-08-30T07:50:47;86041.86;;;24.66;27.32
68586;BME280;72506;-25.924;28.194;2023-08-30T07:53:12;86046.88;;;23.90;28.18
68586;BME280;72506;-25.924;28.194;2023-08-30T07:55:37;86045.29;;;24.73;27.95
68586;BME280;72506;-25.924;28.194;2023-08-30T07:58:03;86046.77;;;23.38;28.41
68586;BME280;72506;-25.924;28.194;2023-08-30T08:00:28;86034.29;;;24.27;26.22
68586;BME280;72506;-25.924;28.194;2023-08-30T08:02:53;86029.93;;;25.05;25.85
68586;BME280;72506;-25.924;28.194;2023-08-30T08:05:19;86029.17;;;24.51;26.90
68586;BME280;72506;-25.924;28.194;2023-08-30T08:07:45;86025.52;;;25.86;25.36
68586;BME280;72506;-25.924;28.194;2023-08-30T08:10:11;86027.29;;;25.73;25.77
68586;BME280;72506;-25.924;28.194;2023-08-30T08:12:36;86040.51;;;24.22;29.38
68586;BME280;72506;-25.924;28.194;2023-08-30T08:15:02;86033.12;;;25.07;27.64
68586;BME280;72506;-25.924;28.194;2023-08-30T08:17:27;86022.80;;;26.87;24.79
68586;BME280;72506;-25.924;28.194;2023-08-30T08:19:53;86017.85;;;27.02;24.46
68586;BME280;72506;-25.924;28.194;2023-08-30T08:22:19;86026.34;;;22.28;28.55
68586;BME280;72506;-25.924;28.194;2023-08-30T08:24:45;86019.44;;;26.12;26.29
68586;BME280;72506;-25.924;28.194;2023-08-30T08:27:11;86008.61;;;26.94;24.43
68586;BME280;72506;-25.924;28.194;2023-08-30T08:29:36;86007.14;;;26.12;24.50
68586;BME280;72506;-25.924;28.194;2023-08-30T08:32:01;86012.37;;;25.54;26.65
68586;BME280;72506;-25.924;28.194;2023-08-30T08:34:27;86009.69;;;27.29;24.96
68586;BME280;72506;-25.924;28.194;2023-08-30T08:36:53;86005.52;;;26.67;25.57
68586;BME280;72506;-25.924;28.194;2023-08-30T08:39:19;86002.57;;;26.50;25.07
68586;BME280;72506;-25.924;28.194;2023-08-30T08:41:44;85997.58;;;28.03;23.76
68586;BME280;72506;-25.924;28.194;2023-08-30T08:44:10;85989.23;;;27.62;22.49
68586;BME280;72506;-25.924;28.194;2023-08-30T08:46:35;85980.39;;;27.78;21.86
68586;BME280;72506;-25.924;28.194;2023-08-30T08:49:05;85981.67;;;27.62;22.96
68586;BME280;72506;-25.924;28.194;2023-08-30T08:51:26;85975.14;;;26.88;22.38
68586;BME280;72506;-25.924;28.194;2023-08-30T08:53:50;85974.81;;;27.60;21.59
68586;BME280;72506;-25.924;28.194;2023-08-30T08:56:16;85969.49;;;26.45;22.02
68586;BME280;72506;-25.924;28.194;2023-08-30T08:58:41;85968.37;;;26.64;23.18
68586;BME280;72506;-25.924;28.194;2023-08-30T09:01:07;85965.22;;;26.23;23.06
68586;BME280;72506;-25.924;28.194;2023-08-30T09:03:34;85967.98;;;25.66;24.89
68586;BME280;72506;-25.924;28.194;2023-08-30T09:05:58;85962.15;;;26.18;23.09
68586;BME280;72506;-25.924;28.194;2023-08-30T09:08:23;85963.10;;;26.41;23.43
68586;BME280;72506;-25.924;28.194;2023-08-30T09:10:48;85962.18;;;26.06;24.31
68586;BME280;72506;-25.924;28.194;2023-08-30T09:13:14;85956.11;;;25.88;24.47
68586;BME280;72506;-25.924;28.194;2023-08-30T09:15:39;85958.96;;;24.55;26.00
68586;BME280;72506;-25.924;28.194;2023-08-30T09:18:13;85946.25;;;25.55;24.32
68586;BME280;72506;-25.924;28.194;2023-08-30T09:20:30;85937.19;;;26.18;23.28
68586;BME280;72506;-25.924;28.194;2023-08-30T09:22:56;85932.76;;;26.71;22.63
68586;BME280;72506;-25.924;28.194;2023-08-30T09:25:26;85935.75;;;26.37;23.47
68586;BME280;72506;-25.924;28.194;2023-08-30T09:27:48;85929.40;;;26.02;23.63
68586;BME280;72506;-25.924;28.194;2023-08-30T09:30:13;85927.42;;;26.72;24.25
68586;BME280;72506;-25.924;28.194;2023-08-30T09:32:42;85916.70;;;26.95;22.96
68586;BME280;72506;-25.924;28.194;2023-08-30T09:35:05;85910.42;;;25.59;23.43
68586;BME280;72506;-25.924;28.194;2023-08-30T09:37:30;85901.75;;;26.55;22.39
68586;BME280;72506;-25.924;28.194;2023-08-30T09:39:55;85901.29;;;26.22;23.28
68586;BME280;72506;-25.924;28.194;2023-08-30T09:42:21;85899.84;;;26.73;22.67
68586;BME280;72506;-25.924;28.194;2023-08-30T09:44:47;85897.02;;;25.97;23.89
68586;BME280;72506;-25.924;28.194;2023-08-30T09:47:13;85889.52;;;24.78;25.50
68586;BME280;72506;-25.924;28.194;2023-08-30T09:49:42;85888.01;;;22.30;26.73
68586;BME280;72506;-25.924;28.194;2023-08-30T09:52:04;85890.61;;;21.24;27.95
68586;BME280;72506;-25.924;28.194;2023-08-30T09:54:32;85872.97;;;23.88;25.75
68586;BME280;72506;-25.924;28.194;2023-08-30T09:56:55;85866.65;;;23.83;24.57
68586;BME280;72506;-25.924;28.194;2023-08-30T09:59:21;85853.08;;;23.51;23.43
68586;BME280;72506;-25.924;28.194;2023-08-30T10:01:48;85854.57;;;24.33;24.31
68586;BME280;72506;-25.924;28.194;2023-08-30T10:04:12;85839.86;;;24.97;21.99
68586;BME280;72506;-25.924;28.194;2023-08-30T10:06:39;85840.51;;;25.34;22.42
68586;BME280;72506;-25.924;28.194;2023-08-30T10:09:04;85839.72;;;25.68;23.53
68586;BME280;72506;-25.924;28.194;2023-08-30T10:11:29;85843.35;;;24.17;24.72
68586;BME280;72506;-25.924;28.194;2023-08-30T10:13:54;85829.51;;;25.48;23.02
68586;BME280;72506;-25.924;28.194;2023-08-30T10:16:20;85817.30;;;24.89;21.61
68586;BME280;72506;-25.924;28.194;2023-08-30T10:18:48;85815.29;;;24.70;23.54
68586;BME280;72506;-25.924;28.194;2023-08-30T10:21:13;85807.21;;;25.51;21.70
68586;BME280;72506;-25.924;28.194;2023-08-30T10:23:36;85793.44;;;22.66;22.57
68586;BME280;72506;-25.924;28.194;2023-08-30T10:26:02;85794.34;;;23.73;24.46
68586;BME280;72506;-25.924;28.194;2023-08-30T10:28:28;85796.23;;;23.68;25.17
68586;BME280;72506;-25.924;28.194;2023-08-30T10:30:53;85783.60;;;23.73;23.39
68586;BME280;72506;-25.924;28.194;2023-08-30T10:33:18;85774.63;;;24.41;23.24
68586;BME280;72506;-25.924;28.194;2023-08-30T10:35:49;85768.90;;;25.27;22.27
68586;BME280;72506;-25.924;28.194;2023-08-30T10:38:09;85762.34;;;25.77;22.51
68586;BME280;72506;-25.924;28.194;2023-08-30T10:40:34;85758.44;;;24.74;21.81
68586;BME280;72506;-25.924;28.194;2023-08-30T10:43:02;85748.31;;;24.81;21.55
68586;BME280;72506;-25.924;28.194;2023-08-30T10:45:25;85740.34;;;23.79;21.61
68586;BME280;72506;-25.924;28.194;2023-08-30T10:47:56;85735.99;;;23.83;21.50
68586;BME280;72506;-25.924;28.194;2023-08-30T10:50:16;85744.80;;;25.09;21.55
68586;BME280;72506;-25.924;28.194;2023-08-30T10:52:42;85732.02;;;23.80;22.07
68586;BME280;72506;-25.924;28.194;2023-08-30T10:55:09;85730.71;;;23.38;22.03
68586;BME280;72506;-25.924;28.194;2023-08-30T10:57:44;85735.75;;;22.42;25.43
68586;BME280;72506;-25.924;28.194;2023-08-30T11:00:07;85726.10;;;24.27;22.19
68586;BME280;72506;-25.924;28.194;2023-08-30T11:02:25;85725.43;;;25.03;22.44
68586;BME280;72506;-25.924;28.194;2023-08-30T11:04:51;85712.28;;;24.33;21.25
68586;BME280;72506;-25.924;28.194;2023-08-30T11:07:17;85702.34;;;23.87;21.26
68586;BME280;72506;-25.924;28.194;2023-08-30T11:09:41;85694.09;;;23.72;20.34
68586;BME280;72506;-25.924;28.194;2023-08-30T11:12:07;85694.72;;;23.32;20.75
68586;BME280;72506;-25.924;28.194;2023-08-30T11:14:32;85693.07;;;22.29;21.72
68586;BME280;72506;-25.924;28.194;2023-08-30T11:16:58;85689.74;;;22.85;21.28
68586;BME280;72506;-25.924;28.194;2023-08-30T11:19:23;85683.26;;;23.28;20.93
68586;BME280;72506;-25.924;28.194;2023-08-30T11:21:48;85683.78;;;23.05;22.43
68586;BME280;72506;-25.924;28.194;2023-08-30T11:24:14;85674.05;;;22.22;21.98
68586;BME280;72506;-25.924;28.194;2023-08-30T11:26:38;85668.21;;;22.86;22.33
68586;BME280;72506;-25.924;28.194;2023-08-30T11:29:06;85661.75;;;23.13;20.98
68586;BME280;72506;-25.924;28.194;2023-08-30T11:31:30;85658.84;;;22.92;21.44
68586;BME280;72506;-25.924;28.194;2023-08-30T11:33:58;85652.38;;;23.32;20.42
68586;BME280;72506;-25.924;28.194;2023-08-30T11:36:22;85651.18;;;23.84;20.24
68586;BME280;72506;-25.924;28.194;2023-08-30T11:38:47;85651.34;;;24.34;20.08
68586;BME280;72506;-25.924;28.194;2023-08-30T11:41:13;85646.63;;;24.21;19.42
68586;BME280;72506;-25.924;28.194;2023-08-30T11:43:37;85640.36;;;23.47;19.95
68586;BME280;72506;-25.924;28.194;2023-08-30T11:46:04;85636.87;;;24.04;19.91
68586;BME280;72506;-25.924;28.194;2023-08-30T11:48:29;85635.22;;;23.32;20.40
68586;BME280;72506;-25.924;28.194;2023-08-30T11:50:54;85630.28;;;24.08;19.82
68586;BME280;72506;-25.924;28.194;2023-08-30T11:53:20;85624.51;;;24.31;19.90
68586;BME280;72506;-25.924;28.194;2023-08-30T11:55:45;85617.18;;;23.31;19.83
68586;BME280;72506;-25.924;28.194;2023-08-30T11:58:10;85614.82;;;24.86;19.47
68586;BME280;72506;-25.924;28.194;2023-08-30T12:00:36;85610.62;;;23.01;20.22
68586;BME280;72506;-25.924;28.194;2023-08-30T12:03:00;85610.79;;;23.11;21.18
68586;BME280;72506;-25.924;28.194;2023-08-30T12:05:26;85608.08;;;24.01;19.95
68586;BME280;72506;-25.924;28.194;2023-08-30T12:07:51;85603.32;;;24.64;20.02
68586;BME280;72506;-25.924;28.194;2023-08-30T12:10:19;85604.86;;;23.49;21.26
68586;BME280;72506;-25.924;28.194;2023-08-30T12:12:46;85604.09;;;24.61;20.90
68586;BME280;72506;-25.924;28.194;2023-08-30T12:15:09;85599.41;;;23.59;21.39
68586;BME280;72506;-25.924;28.194;2023-08-30T12:17:35;85596.39;;;24.39;20.47
68586;BME280;72506;-25.924;28.194;2023-08-30T12:19:58;85588.20;;;24.60;19.70
68586;BME280;72506;-25.924;28.194;2023-08-30T12:22:23;85580.99;;;24.89;18.85
68586;BME280;72506;-25.924;28.194;2023-08-30T12:24:48;85579.86;;;24.70;19.45
68586;BME280;72506;-25.924;28.194;2023-08-30T12:27:14;85579.14;;;23.77;19.61
68586;BME280;72506;-25.924;28.194;2023-08-30T12:29:39;85574.79;;;24.75;19.41